createdAt,value
2023-05-19T00:01:52.653Z,15.00
2023-05-19T00:04:40.740Z,12.70
2023-05-19T00:07:18.837Z,15.70
2023-05-19T00:09:57.708Z,12.50
2023-05-19T00:12:38.881Z,14.10
2023-05-19T00:15:33.013Z,15.80
2023-05-19T00:18:26.662Z,12.10
2023-05-19T00:20:59.738Z,12.90
2023-05-19T00:23:32.394Z,13.30
2023-05-19T00:26:05.127Z,14.20
2023-05-19T00:28:38.316Z,16.40
2023-05-19T00:31:13.954Z,14.30
2023-05-19T00:33:49.795Z,13.20
2023-05-19T00:36:22.501Z,13.70
2023-05-19T00:38:57.440Z,15.30
2023-05-19T00:41:36.065Z,14.00
2023-05-19T00:44:09.620Z,15.50
2023-05-19T00:46:44.805Z,16.60
2023-05-19T00:49:20.632Z,14.00
2023-05-19T00:51:55.182Z,14.60
2023-05-19T00:54:31.616Z,13.90
2023-05-19T00:57:07.673Z,18.30
2023-05-19T00:59:40.696Z,16.70
2023-05-19T01:02:16.287Z,13.50
2023-05-19T01:04:53.724Z,15.00
2023-05-19T01:07:29.220Z,11.20
2023-05-19T01:10:05.681Z,13.40
2023-05-19T01:12:58.386Z,11.60
2023-05-19T01:15:35.498Z,14.00
2023-05-19T01:18:26.110Z,12.00
2023-05-19T01:21:10.966Z,11.40
2023-05-19T01:23:57.231Z,12.90
2023-05-19T01:26:56.510Z,12.60
2023-05-19T01:29:44.250Z,12.80
2023-05-19T01:32:22.348Z,10.50
2023-05-19T01:34:56.800Z,10.70
2023-05-19T01:37:33.371Z,11.40
2023-05-19T01:40:16.715Z,10.10
2023-05-19T01:42:55.541Z,12.10
2023-05-19T01:45:34.178Z,10.50
2023-05-19T01:48:10.880Z,10.70
2023-05-19T01:50:57.347Z,10.50
2023-05-19T01:53:32.648Z,11.70
2023-05-19T01:56:06.679Z,10.80
2023-05-19T01:58:54.273Z,11.10
2023-05-19T02:01:37.279Z,11.30
2023-05-19T02:04:28.767Z,10.90
2023-05-19T02:09:50.491Z,13.30
2023-05-19T02:12:34.333Z,12.70
2023-05-19T02:15:15.992Z,13.30
2023-05-19T02:17:54.788Z,17.00
2023-05-19T02:20:30.482Z,14.40
2023-05-19T02:23:06.897Z,13.50
2023-05-19T02:25:44.704Z,13.60
2023-05-19T02:28:20.887Z,12.90
2023-05-19T02:31:08.911Z,13.60
2023-05-19T02:33:44.387Z,11.20
2023-05-19T02:36:16.945Z,10.10
2023-05-19T02:39:01.148Z,10.00
2023-05-19T02:41:37.066Z,10.80
2023-05-19T02:44:13.068Z,10.20
2023-05-19T02:47:06.145Z,10.80
2023-05-19T02:49:48.828Z,10.80
2023-05-19T02:52:21.510Z,11.10
2023-05-19T02:54:56.867Z,11.60
2023-05-19T02:57:38.626Z,10.60
2023-05-19T03:00:13.277Z,10.70
2023-05-19T03:02:46.161Z,13.30
2023-05-19T03:05:23.310Z,11.70
2023-05-19T03:07:59.378Z,11.10
2023-05-19T03:10:43.175Z,11.60
2023-05-19T03:13:20.483Z,9.40
2023-05-19T03:15:57.948Z,10.30
2023-05-19T03:18:35.633Z,11.00
2023-05-19T03:21:08.719Z,11.70
2023-05-19T03:23:44.367Z,11.10
2023-05-19T03:26:19.771Z,11.10
2023-05-19T03:28:55.254Z,9.90
2023-05-19T03:31:48.168Z,9.50
2023-05-19T03:34:23.998Z,10.60
2023-05-19T03:36:59.339Z,8.40
2023-05-19T03:39:35.454Z,8.80
2023-05-19T03:42:11.245Z,10.70
2023-05-19T03:44:46.425Z,9.20
2023-05-19T03:47:22.772Z,10.70
2023-05-19T03:50:25.080Z,8.80
2023-05-19T03:53:02.000Z,8.50
2023-05-19T03:55:48.618Z,9.00
2023-05-19T03:58:21.362Z,9.00
2023-05-19T04:01:05.017Z,8.70
2023-05-19T04:03:40.172Z,7.80
2023-05-19T04:06:15.869Z,9.20
2023-05-19T04:08:50.569Z,8.50
2023-05-19T04:11:26.359Z,10.60
2023-05-19T04:14:01.631Z,8.50
2023-05-19T04:16:37.217Z,9.10
2023-05-19T04:19:10.043Z,9.50
2023-05-19T04:21:47.967Z,8.40
2023-05-19T04:24:20.823Z,8.40
2023-05-19T04:26:56.326Z,8.50
2023-05-19T04:29:32.714Z,7.80
2023-05-19T04:32:25.991Z,8.90
2023-05-19T04:35:03.542Z,8.30
2023-05-19T04:37:40.659Z,7.20
2023-05-19T04:40:34.629Z,8.90
2023-05-19T04:43:19.405Z,9.10
2023-05-19T04:46:06.462Z,9.60
2023-05-19T04:48:42.963Z,8.10
2023-05-19T04:51:18.782Z,9.80
2023-05-19T04:53:51.736Z,10.60
2023-05-19T04:56:27.620Z,9.80
2023-05-19T04:59:03.874Z,9.20
2023-05-19T05:01:40.384Z,9.90
2023-05-19T05:04:17.634Z,8.80
2023-05-19T05:06:53.537Z,11.30
2023-05-19T05:09:26.601Z,8.20
2023-05-19T05:12:07.637Z,10.00
2023-05-19T05:14:51.335Z,10.70
2023-05-19T05:17:33.412Z,9.40
2023-05-19T05:20:08.393Z,9.90
2023-05-19T05:23:02.515Z,9.80
2023-05-19T05:25:37.402Z,7.60
2023-05-19T05:28:10.228Z,8.70
2023-05-19T05:30:43.791Z,9.40
2023-05-19T05:33:17.456Z,8.20
2023-05-19T05:35:51.220Z,9.10
2023-05-19T05:38:25.817Z,13.90
2023-05-19T05:41:00.546Z,10.00
2023-05-19T05:43:33.623Z,8.10
2023-05-19T05:46:08.433Z,8.20
2023-05-19T05:48:43.090Z,9.20
2023-05-19T05:51:18.255Z,8.60
2023-05-19T05:53:55.767Z,6.60
2023-05-19T05:56:35.073Z,8.20
2023-05-19T05:59:12.201Z,6.80
2023-05-19T06:01:45.608Z,7.50
2023-05-19T06:04:18.014Z,7.60
2023-05-19T06:06:52.721Z,8.70
2023-05-19T06:09:27.986Z,8.10
2023-05-19T06:12:02.758Z,9.70
2023-05-19T06:14:39.419Z,7.50
2023-05-19T06:17:22.514Z,7.80
2023-05-19T06:19:59.766Z,8.60
2023-05-19T06:22:36.143Z,7.90
2023-05-19T06:25:14.080Z,8.00
2023-05-19T06:27:50.278Z,8.50
2023-05-19T06:30:26.132Z,8.50
2023-05-19T06:33:19.062Z,8.10
2023-05-19T06:35:51.939Z,8.50
2023-05-19T06:38:28.911Z,10.00
2023-05-19T06:41:04.586Z,7.90
2023-05-19T06:43:41.643Z,10.50
2023-05-19T06:46:19.368Z,7.30
2023-05-19T06:48:54.471Z,8.10
2023-05-19T06:51:28.565Z,6.60
2023-05-19T06:54:03.245Z,7.50
2023-05-19T06:56:38.459Z,10.40
2023-05-19T06:59:13.212Z,7.80
2023-05-19T07:01:45.874Z,6.40
2023-05-19T07:04:22.763Z,8.00
2023-05-19T07:06:55.543Z,6.70
2023-05-19T07:09:38.576Z,8.30
2023-05-19T07:12:31.230Z,7.70
2023-05-19T07:15:23.936Z,8.20
2023-05-19T07:18:07.139Z,7.70
2023-05-19T07:20:41.958Z,8.20
2023-05-19T07:23:21.979Z,7.40
2023-05-19T07:25:59.127Z,8.00
2023-05-19T07:28:43.634Z,8.00
2023-05-19T07:31:17.601Z,10.50
2023-05-19T07:33:53.018Z,7.40
2023-05-19T07:36:27.269Z,8.40
2023-05-19T07:39:11.037Z,9.20
2023-05-19T07:41:55.829Z,10.40
2023-05-19T07:44:48.730Z,6.40
2023-05-19T07:47:32.759Z,7.90
2023-05-19T07:50:10.330Z,10.30
2023-05-19T07:53:05.251Z,8.50
2023-05-19T07:55:48.309Z,8.80
2023-05-19T07:58:41.439Z,8.80
2023-05-19T08:01:34.367Z,8.50
2023-05-19T08:04:27.962Z,11.30
2023-05-19T08:07:20.823Z,8.50
2023-05-19T08:10:03.517Z,7.40
2023-05-19T08:12:59.122Z,7.70
2023-05-19T08:15:52.216Z,7.90
2023-05-19T08:18:46.392Z,8.00
2023-05-19T08:21:39.622Z,8.20
2023-05-19T08:24:36.274Z,8.10
2023-05-19T08:27:29.365Z,8.50
2023-05-19T08:30:23.597Z,8.40
2023-05-19T08:33:07.189Z,9.50
2023-05-19T08:35:40.092Z,8.20
2023-05-19T08:38:23.196Z,8.30
2023-05-19T08:40:58.184Z,9.40
2023-05-19T08:43:50.859Z,9.60
2023-05-19T08:46:43.985Z,8.10
2023-05-19T08:49:44.451Z,7.80
2023-05-19T08:52:49.462Z,8.80
2023-05-19T08:55:43.436Z,9.00
2023-05-19T08:58:39.523Z,8.60
2023-05-19T09:01:28.300Z,9.00
2023-05-19T09:04:22.341Z,8.90
2023-05-19T09:07:18.909Z,8.80
2023-05-19T09:09:52.168Z,9.50
2023-05-19T09:12:47.639Z,8.90
2023-05-19T09:15:42.479Z,8.50
2023-05-19T09:18:35.604Z,13.20
2023-05-19T09:21:19.128Z,11.70
2023-05-19T09:24:13.105Z,12.90
2023-05-19T09:27:06.370Z,10.50
2023-05-19T09:29:42.052Z,9.50
2023-05-19T09:32:36.786Z,10.00
2023-05-19T09:35:29.951Z,9.60
2023-05-19T09:38:23.043Z,8.40
2023-05-19T09:41:17.642Z,9.50
2023-05-19T09:44:13.754Z,10.70
2023-05-19T09:47:07.195Z,9.90
2023-05-19T09:50:00.384Z,9.60
2023-05-19T09:52:53.487Z,10.30
2023-05-19T09:55:47.555Z,10.10
2023-05-19T09:58:43.034Z,9.90
2023-05-19T10:01:37.680Z,11.70
2023-05-19T10:04:31.708Z,10.70
2023-05-19T10:07:26.724Z,11.10
2023-05-19T10:10:21.256Z,11.50
2023-05-19T10:13:15.417Z,10.90
2023-05-19T10:16:10.028Z,11.90
2023-05-19T10:19:03.804Z,9.70
2023-05-19T10:21:57.325Z,10.10
2023-05-19T10:24:50.258Z,10.70
2023-05-19T10:27:35.124Z,11.20
2023-05-19T10:30:38.831Z,10.30
2023-05-19T10:33:38.155Z,10.40
2023-05-19T10:36:40.659Z,9.70
2023-05-19T10:39:37.628Z,9.60
2023-05-19T10:42:34.964Z,10.10
2023-05-19T10:45:32.072Z,9.40
2023-05-19T10:48:24.984Z,9.50
2023-05-19T10:51:19.057Z,10.80
2023-05-19T10:54:16.115Z,10.10
2023-05-19T10:57:10.097Z,11.20
2023-05-19T11:00:11.732Z,11.50
2023-05-19T11:03:17.933Z,11.80
2023-05-19T11:06:29.491Z,11.10
2023-05-19T11:09:37.883Z,9.90
2023-05-19T11:12:44.900Z,10.30
2023-05-19T11:15:39.166Z,11.30
2023-05-19T11:18:41.085Z,11.70
2023-05-19T11:21:47.169Z,10.70
2023-05-19T11:24:41.963Z,10.40
2023-05-19T11:27:32.877Z,9.90
2023-05-19T11:30:26.253Z,11.20
2023-05-19T11:33:09.267Z,11.70
2023-05-19T11:36:02.137Z,12.20
2023-05-19T11:38:55.391Z,12.70
2023-05-19T11:41:43.289Z,12.00
2023-05-19T11:44:38.784Z,11.30
2023-05-19T11:47:23.816Z,11.40
2023-05-19T11:50:07.801Z,12.70
2023-05-19T11:52:51.689Z,11.80
2023-05-19T11:55:25.051Z,13.50
2023-05-19T11:58:10.428Z,12.70
2023-05-19T12:00:52.800Z,13.80
2023-05-19T12:03:46.745Z,12.60
2023-05-19T12:06:23.126Z,13.30
2023-05-19T12:08:57.483Z,11.90
2023-05-19T12:11:41.438Z,13.00
2023-05-19T12:14:16.537Z,12.80
2023-05-19T12:16:49.420Z,13.30
2023-05-19T12:19:24.391Z,12.30
2023-05-19T12:22:08.410Z,12.40
2023-05-19T12:24:44.227Z,14.30
2023-05-19T12:27:39.401Z,13.80
2023-05-19T12:30:15.526Z,11.50
2023-05-19T12:32:52.276Z,13.10
2023-05-19T12:35:38.965Z,12.60
2023-05-19T12:38:22.356Z,11.90
2023-05-19T12:41:15.964Z,13.90
2023-05-19T12:44:18.418Z,13.80
2023-05-19T12:46:58.559Z,11.80
2023-05-19T12:50:04.789Z,11.60
2023-05-19T12:52:59.734Z,11.70
2023-05-19T12:55:56.104Z,13.10
2023-05-19T12:58:41.644Z,13.40
2023-05-19T13:01:25.741Z,11.80
2023-05-19T13:04:06.052Z,10.80
2023-05-19T13:06:39.621Z,13.70
2023-05-19T13:09:17.052Z,12.80
2023-05-19T13:12:09.482Z,11.50
2023-05-19T13:15:00.952Z,11.80
2023-05-19T13:17:46.541Z,11.30
2023-05-19T13:20:41.004Z,11.80
2023-05-19T13:23:35.602Z,14.60
2023-05-19T13:26:16.985Z,10.90
2023-05-19T13:29:02.345Z,10.60
2023-05-19T13:31:55.304Z,12.30
2023-05-19T13:34:48.214Z,11.70
2023-05-19T13:37:31.797Z,11.60
2023-05-19T13:40:15.870Z,12.20
2023-05-19T13:42:53.462Z,12.60
2023-05-19T13:45:30.302Z,11.50
2023-05-19T13:48:08.660Z,10.20
2023-05-19T13:51:02.423Z,11.40
2023-05-19T13:53:43.910Z,11.90
2023-05-19T13:56:37.122Z,11.60
2023-05-19T13:59:29.930Z,11.70
2023-05-19T14:02:22.607Z,11.10
2023-05-19T14:05:15.894Z,11.80
2023-05-19T14:08:01.243Z,13.30
2023-05-19T14:10:57.190Z,11.40
2023-05-19T14:13:33.852Z,13.30
2023-05-19T14:16:23.205Z,12.00
2023-05-19T14:19:07.884Z,11.80
2023-05-19T14:21:54.524Z,12.60
2023-05-19T14:24:29.604Z,11.50
2023-05-19T14:27:02.658Z,10.90
2023-05-19T14:29:38.921Z,11.20
2023-05-19T14:32:31.617Z,10.90
2023-05-19T14:35:24.275Z,11.80
2023-05-19T14:38:10.189Z,11.70
2023-05-19T14:41:03.360Z,14.70
2023-05-19T14:43:55.328Z,11.00
2023-05-19T14:46:42.503Z,12.20
2023-05-19T14:49:15.288Z,10.80
2023-05-19T14:52:02.050Z,13.20
2023-05-19T14:54:41.070Z,12.70
2023-05-19T14:57:13.423Z,11.10
2023-05-19T14:59:46.619Z,11.20
2023-05-19T15:02:18.819Z,12.60
2023-05-19T15:04:51.284Z,11.70
2023-05-19T15:07:24.756Z,11.00
2023-05-19T15:09:57.405Z,12.60
2023-05-19T15:12:30.045Z,14.10
2023-05-19T15:15:02.944Z,12.40
2023-05-19T15:17:35.807Z,15.00
2023-05-19T15:20:10.390Z,13.10
2023-05-19T15:22:43.024Z,12.50
2023-05-19T15:25:15.781Z,13.50
2023-05-19T15:27:48.280Z,14.40
2023-05-19T15:30:21.213Z,14.60
2023-05-19T15:32:53.988Z,14.50
2023-05-19T15:35:26.796Z,12.70
2023-05-19T15:38:19.615Z,14.40
2023-05-19T15:41:13.103Z,14.80
2023-05-19T15:43:46.714Z,13.50
2023-05-19T15:46:21.871Z,14.40
2023-05-19T15:48:55.168Z,13.10
2023-05-19T15:51:32.440Z,12.50
2023-05-19T15:54:05.292Z,15.00
2023-05-19T15:56:41.468Z,13.80
2023-05-19T15:59:17.627Z,15.70
2023-05-19T16:02:07.250Z,15.00
2023-05-19T16:04:42.390Z,16.20
2023-05-19T16:07:20.908Z,16.10
2023-05-19T16:10:05.320Z,18.30
2023-05-19T16:12:41.454Z,17.30
2023-05-19T16:15:34.776Z,17.00
2023-05-19T16:18:10.362Z,15.70
2023-05-19T16:20:45.510Z,15.30
2023-05-19T16:23:21.149Z,15.90
2023-05-19T16:25:57.617Z,15.00
2023-05-19T16:28:30.583Z,15.50
2023-05-19T16:31:12.350Z,15.90
2023-05-19T16:33:48.213Z,16.10
2023-05-19T16:36:27.595Z,17.20
2023-05-19T16:39:10.070Z,16.40
2023-05-19T16:41:53.182Z,15.60
2023-05-19T16:44:36.870Z,18.60
2023-05-19T16:47:29.885Z,16.90
2023-05-19T16:50:11.046Z,18.40
2023-05-19T16:52:46.802Z,16.10
2023-05-19T16:55:20.895Z,16.10
2023-05-19T16:57:57.162Z,17.30
2023-05-19T17:00:30.722Z,16.80
2023-05-19T17:03:09.148Z,18.60
2023-05-19T17:05:51.213Z,19.50
2023-05-19T17:08:34.821Z,19.00
2023-05-19T17:11:09.773Z,17.90
2023-05-19T17:13:52.260Z,17.60
2023-05-19T17:16:37.780Z,17.40
2023-05-19T17:19:14.040Z,17.20
2023-05-19T17:21:46.883Z,17.70
2023-05-19T17:24:19.728Z,19.60
2023-05-19T17:26:52.571Z,19.30
2023-05-19T17:29:27.101Z,20.30
2023-05-19T17:31:59.781Z,21.20
2023-05-19T17:34:32.233Z,24.60
2023-05-19T17:37:05.141Z,19.10
2023-05-19T17:39:39.090Z,21.00
2023-05-19T17:42:11.926Z,23.00
2023-05-19T17:44:44.957Z,20.90
2023-05-19T17:47:17.278Z,23.10
2023-05-19T17:49:50.463Z,25.70
2023-05-19T17:52:26.599Z,27.80
2023-05-19T17:55:00.001Z,27.20
2023-05-19T17:57:34.721Z,28.80
2023-05-19T18:00:10.597Z,25.10
2023-05-19T18:02:44.292Z,24.30
2023-05-19T18:05:18.819Z,22.90
2023-05-19T18:07:51.293Z,25.60
2023-05-19T18:10:27.096Z,25.80
2023-05-19T18:13:00.453Z,24.60
2023-05-19T18:15:33.046Z,27.90
2023-05-19T18:18:07.935Z,25.00
2023-05-19T18:20:44.489Z,27.30
2023-05-19T18:23:17.397Z,24.80
2023-05-19T18:25:53.562Z,23.90
2023-05-19T18:28:26.590Z,28.30
2023-05-19T18:31:06.304Z,27.10
2023-05-19T18:33:40.133Z,22.20
2023-05-19T18:36:13.617Z,23.40
2023-05-19T18:38:58.201Z,21.90
2023-05-19T18:41:32.246Z,25.60
2023-05-19T18:44:06.340Z,29.50
2023-05-19T18:46:39.840Z,27.70
2023-05-19T18:49:25.141Z,24.50
2023-05-19T18:51:58.246Z,28.80
2023-05-19T18:54:32.594Z,29.40
2023-05-19T18:57:05.359Z,29.80
2023-05-19T18:59:38.328Z,26.10
2023-05-19T19:02:11.177Z,28.80
2023-05-19T19:04:45.519Z,28.00
2023-05-19T19:07:18.291Z,27.60
2023-05-19T19:09:50.821Z,25.00
2023-05-19T19:12:25.212Z,23.10
2023-05-19T19:14:57.734Z,26.10
2023-05-19T19:17:30.660Z,26.40
2023-05-19T19:20:03.283Z,28.30
2023-05-19T19:22:38.739Z,27.00
2023-05-19T19:25:12.289Z,25.10
2023-05-19T19:27:45.034Z,27.40
2023-05-19T19:30:17.765Z,32.20
2023-05-19T19:32:50.509Z,29.30
2023-05-19T19:35:24.756Z,32.80
2023-05-19T19:37:58.590Z,30.10
2023-05-19T19:40:32.524Z,30.20
2023-05-19T19:43:05.378Z,29.80
2023-05-19T19:46:04.615Z,32.00
2023-05-19T19:49:00.427Z,34.60
2023-05-19T19:51:53.486Z,33.40
2023-05-19T19:54:46.375Z,32.20
2023-05-19T19:57:34.328Z,33.50
2023-05-19T20:00:19.296Z,31.50
2023-05-19T20:03:13.443Z,31.30
2023-05-19T20:06:07.718Z,31.80
2023-05-19T20:09:00.615Z,29.00
2023-05-19T20:11:45.718Z,32.40
2023-05-19T20:14:31.244Z,30.60
2023-05-19T20:17:24.323Z,30.70
2023-05-19T20:20:12.541Z,31.70
2023-05-19T20:23:05.177Z,32.80
2023-05-19T20:26:10.299Z,33.90
2023-05-19T20:29:04.193Z,37.80
2023-05-19T20:31:57.203Z,37.40
2023-05-19T20:34:43.290Z,38.20
2023-05-19T20:37:36.869Z,37.20
2023-05-19T20:40:23.307Z,37.80
2023-05-19T20:43:16.217Z,40.00
2023-05-19T20:46:09.174Z,41.40
2023-05-19T20:49:02.804Z,36.40
2023-05-19T20:51:55.833Z,35.80
2023-05-19T20:54:49.131Z,32.50
2023-05-19T20:57:41.698Z,31.50
2023-05-19T21:00:34.505Z,32.20
2023-05-19T21:03:11.833Z,31.50
2023-05-19T21:06:04.713Z,33.20
2023-05-19T21:08:57.635Z,31.10
2023-05-19T21:11:53.776Z,31.30
2023-05-19T21:14:39.115Z,30.40
2023-05-19T21:17:32.067Z,31.40
2023-05-19T21:20:16.334Z,30.50
2023-05-19T21:23:10.133Z,31.60
2023-05-19T21:26:01.710Z,34.20
2023-05-19T21:28:56.410Z,32.80
2023-05-19T21:31:42.197Z,28.70
2023-05-19T21:34:27.909Z,32.00
2023-05-19T21:37:11.848Z,30.10
2023-05-19T21:39:57.772Z,30.70
2023-05-19T21:42:52.658Z,30.80
2023-05-19T21:45:45.185Z,31.90
2023-05-19T21:48:38.858Z,31.60
2023-05-19T21:51:31.713Z,29.10
2023-05-19T21:54:25.870Z,31.80
2023-05-19T21:57:18.840Z,30.90
2023-05-19T22:00:06.517Z,33.10
2023-05-19T22:02:59.122Z,30.30
2023-05-19T22:05:56.386Z,34.80
2023-05-19T22:08:50.040Z,35.20
2023-05-19T22:11:44.691Z,33.40
2023-05-19T22:14:37.662Z,30.50
2023-05-19T22:17:30.874Z,34.50
2023-05-19T22:20:17.670Z,30.30
2023-05-19T22:23:11.467Z,30.60
2023-05-19T22:25:58.265Z,30.30
2023-05-19T22:28:33.785Z,28.80
2023-05-19T22:31:08.956Z,33.70
2023-05-19T22:33:41.443Z,35.90
2023-05-19T22:36:16.138Z,35.90
2023-05-19T22:38:49.057Z,36.60
2023-05-19T22:41:23.697Z,34.90
2023-05-19T22:43:57.052Z,35.20
2023-05-19T22:46:29.616Z,34.60
2023-05-19T22:49:23.649Z,34.50
2023-05-19T22:52:10.248Z,32.50
2023-05-19T22:54:42.892Z,33.30
2023-05-19T22:57:35.722Z,35.30
2023-05-19T23:00:28.508Z,35.40
2023-05-19T23:03:20.999Z,33.60
2023-05-19T23:06:12.184Z,29.70
2023-05-19T23:09:05.882Z,35.50
2023-05-19T23:11:58.783Z,35.90
2023-05-19T23:14:51.483Z,33.90
2023-05-19T23:17:29.819Z,36.00
2023-05-19T23:20:22.815Z,36.40
2023-05-19T23:23:15.445Z,33.20
2023-05-19T23:25:58.137Z,34.20
2023-05-19T23:28:49.191Z,32.50
2023-05-19T23:31:42.483Z,34.00
2023-05-19T23:34:28.997Z,31.20
2023-05-19T23:37:08.614Z,36.30
2023-05-19T23:40:01.249Z,36.90
2023-05-19T23:42:54.455Z,37.50
2023-05-19T23:45:30.350Z,32.00
2023-05-19T23:48:11.551Z,33.10
2023-05-19T23:51:04.584Z,31.80
2023-05-19T23:53:50.020Z,36.20
2023-05-19T23:56:41.424Z,31.60
2023-05-19T23:59:31.426Z,34.20
